sensor_id;sensor_type;location;lat;lon;timestamp;P1;durP1;ratioP1;P2;durP2;ratioP2
74788;SDS011;63313;48.258;12.518;2023-09-19T00:00:10;2.6100000000000003;;;1.35;;
74788;SDS011;63313;48.258;12.518;2023-09-19T00:05:37;1.95;;;1.4200000000000002;;
74788;SDS011;63313;48.258;12.518;2023-09-19T00:11:05;2.3200000000000003;;;1.35;;
74788;SDS011;63313;48.258;12.518;2023-09-19T00:16:32;7.010000000000001;;;1.8400000000000003;;
74788;SDS011;63313;48.258;12.518;2023-09-19T00:22:00;1.7100000000000002;;;1.46;;
74788;SDS011;63313;48.258;12.518;2023-09-19T00:27:28;2.54;;;1.3699999999999999;;
74788;SDS011;63313;48.258;12.518;2023-09-19T00:32:55;2.31;;;1.5699999999999998;;
74788;SDS011;63313;48.258;12.518;2023-09-19T00:38:22;5.3;;;1.3699999999999999;;
74788;SDS011;63313;48.258;12.518;2023-09-19T00:43:49;3.17;;;1.3000000000000003;;
74788;SDS011;63313;48.258;12.518;2023-09-19T00:49:16;3.3600000000000003;;;1.34;;
74788;SDS011;63313;48.258;12.518;2023-09-19T00:54:43;3.4799999999999995;;;1.49;;
74788;SDS011;63313;48.258;12.518;2023-09-19T01:00:12;2.5000000000000004;;;1.45;;
74788;SDS011;63313;48.258;12.518;2023-09-19T01:05:39;2.11;;;1.55;;
74788;SDS011;63313;48.258;12.518;2023-09-19T01:11:09;2.01;;;1.6199999999999999;;
74788;SDS011;63313;48.258;12.518;2023-09-19T01:16:41;2.42;;;1.55;;
74788;SDS011;63313;48.258;12.518;2023-09-19T01:22:10;3.8899999999999997;;;1.56;;
74788;SDS011;63313;48.258;12.518;2023-09-19T01:27:49;2.65;;;1.29;;
74788;SDS011;63313;48.258;12.518;2023-09-19T01:33:19;2.32;;;1.5299999999999998;;
74788;SDS011;63313;48.258;12.518;2023-09-19T01:38:46;1.9899999999999995;;;1.7399999999999998;;
74788;SDS011;63313;48.258;12.518;2023-09-19T01:44:15;1.51;;;1.42;;
74788;SDS011;63313;48.258;12.518;2023-09-19T01:49:44;2.3099999999999996;;;1.4899999999999998;;
74788;SDS011;63313;48.258;12.518;2023-09-19T01:55:16;4.26;;;1.35;;
74788;SDS011;63313;48.258;12.518;2023-09-19T02:00:43;3.5;;;1.23;;
74788;SDS011;63313;48.258;12.518;2023-09-19T02:06:13;2.2600000000000002;;;1.7899999999999998;;
74788;SDS011;63313;48.258;12.518;2023-09-19T02:11:40;7.090000000000001;;;1.45;;
74788;SDS011;63313;48.258;12.518;2023-09-19T02:17:07;2.2;;;1.6800000000000002;;
74788;SDS011;63313;48.258;12.518;2023-09-19T02:22:34;3.5700000000000003;;;1.75;;
74788;SDS011;63313;48.258;12.518;2023-09-19T02:28:01;3.6099999999999994;;;1.4500000000000002;;
74788;SDS011;63313;48.258;12.518;2023-09-19T02:33:29;3.7300000000000004;;;2.0;;
74788;SDS011;63313;48.258;12.518;2023-09-19T02:38:56;6.13;;;1.72;;
74788;SDS011;63313;48.258;12.518;2023-09-19T02:44:23;2.51;;;1.3900000000000001;;
74788;SDS011;63313;48.258;12.518;2023-09-19T02:49:50;4.34;;;1.6600000000000001;;
74788;SDS011;63313;48.258;12.518;2023-09-19T02:55:18;3.22;;;1.95;;
74788;SDS011;63313;48.258;12.518;2023-09-19T03:00:45;3.09;;;1.61;;
74788;SDS011;63313;48.258;12.518;2023-09-19T03:06:12;6.08;;;1.55;;
74788;SDS011;63313;48.258;12.518;2023-09-19T03:11:39;1.2500000000000002;;;1.1800000000000002;;
74788;SDS011;63313;48.258;12.518;2023-09-19T03:17:06;1.45;;;1.3000000000000003;;
74788;SDS011;63313;48.258;12.518;2023-09-19T03:22:33;2.6700000000000004;;;1.36;;
74788;SDS011;63313;48.258;12.518;2023-09-19T03:28:00;2.62;;;1.52;;
74788;SDS011;63313;48.258;12.518;2023-09-19T03:33:28;3.6400000000000006;;;1.8;;
74788;SDS011;63313;48.258;12.518;2023-09-19T03:38:55;2.05;;;1.52;;
74788;SDS011;63313;48.258;12.518;2023-09-19T03:44:22;5.16;;;1.8299999999999996;;
74788;SDS011;63313;48.258;12.518;2023-09-19T03:49:49;3.0100000000000002;;;1.43;;
74788;SDS011;63313;48.258;12.518;2023-09-19T03:55:16;2.32;;;1.5499999999999998;;
74788;SDS011;63313;48.258;12.518;2023-09-19T04:00:43;3.0799999999999996;;;1.5699999999999998;;
74788;SDS011;63313;48.258;12.518;2023-09-19T04:06:10;2.34;;;1.48;;
74788;SDS011;63313;48.258;12.518;2023-09-19T04:11:37;3.5;;;1.5100000000000002;;
74788;SDS011;63313;48.258;12.518;2023-09-19T04:17:04;1.61;;;1.5;;
74788;SDS011;63313;48.258;12.518;2023-09-19T04:22:31;2.39;;;1.3599999999999999;;
74788;SDS011;63313;48.258;12.518;2023-09-19T04:27:58;3.0999999999999996;;;1.28;;
74788;SDS011;63313;48.258;12.518;2023-09-19T04:33:25;2.52;;;1.6600000000000001;;
74788;SDS011;63313;48.258;12.518;2023-09-19T04:38:53;2.0100000000000002;;;1.3599999999999999;;
74788;SDS011;63313;48.258;12.518;2023-09-19T04:44:20;2.72;;;2.1;;
74788;SDS011;63313;48.258;12.518;2023-09-19T04:49:47;2.25;;;1.64;;
74788;SDS011;63313;48.258;12.518;2023-09-19T04:55:14;3.94;;;1.7400000000000002;;
74788;SDS011;63313;48.258;12.518;2023-09-19T05:00:41;2.98;;;1.6300000000000001;;
74788;SDS011;63313;48.258;12.518;2023-09-19T05:06:08;2.7199999999999998;;;1.83;;
74788;SDS011;63313;48.258;12.518;2023-09-19T05:11:35;2.7700000000000005;;;1.56;;
74788;SDS011;63313;48.258;12.518;2023-09-19T05:17:02;3.0;;;1.5999999999999999;;
74788;SDS011;63313;48.258;12.518;2023-09-19T05:22:29;2.07;;;1.7999999999999996;;
74788;SDS011;63313;48.258;12.518;2023-09-19T05:27:57;6.919999999999999;;;1.83;;
74788;SDS011;63313;48.258;12.518;2023-09-19T05:33:24;2.2500000000000004;;;1.5999999999999999;;
74788;SDS011;63313;48.258;12.518;2023-09-19T05:38:51;3.21;;;1.6800000000000002;;
74788;SDS011;63313;48.258;12.518;2023-09-19T05:44:18;4.45;;;1.95;;
74788;SDS011;63313;48.258;12.518;2023-09-19T05:49:45;4.220000000000001;;;1.9100000000000001;;
74788;SDS011;63313;48.258;12.518;2023-09-19T05:55:12;6.900000000000001;;;1.78;;
74788;SDS011;63313;48.258;12.518;2023-09-19T06:00:39;1.7100000000000002;;;1.6099999999999999;;
74788;SDS011;63313;48.258;12.518;2023-09-19T06:06:07;5.4;;;1.8299999999999996;;
74788;SDS011;63313;48.258;12.518;2023-09-19T06:11:34;3.2599999999999993;;;1.6300000000000001;;
74788;SDS011;63313;48.258;12.518;2023-09-19T06:17:01;4.14;;;1.9600000000000002;;
74788;SDS011;63313;48.258;12.518;2023-09-19T06:22:28;6.460000000000001;;;1.8199999999999998;;
74788;SDS011;63313;48.258;12.518;2023-09-19T06:27:55;3.13;;;1.77;;
74788;SDS011;63313;48.258;12.518;2023-09-19T06:33:22;1.97;;;1.47;;
74788;SDS011;63313;48.258;12.518;2023-09-19T06:38:49;3.1199999999999997;;;1.6800000000000002;;
74788;SDS011;63313;48.258;12.518;2023-09-19T06:44:16;7.0600000000000005;;;2.0;;
74788;SDS011;63313;48.258;12.518;2023-09-19T06:49:43;3.0599999999999996;;;1.78;;
74788;SDS011;63313;48.258;12.518;2023-09-19T06:55:10;7.119999999999999;;;1.9;;
74788;SDS011;63313;48.258;12.518;2023-09-19T07:00:37;1.6599999999999997;;;1.5499999999999998;;
74788;SDS011;63313;48.258;12.518;2023-09-19T07:06:04;3.5;;;1.3199999999999998;;
74788;SDS011;63313;48.258;12.518;2023-09-19T07:11:31;2.63;;;1.6900000000000002;;
74788;SDS011;63313;48.258;12.518;2023-09-19T07:16:59;2.3;;;1.78;;
74788;SDS011;63313;48.258;12.518;2023-09-19T07:22:26;2.75;;;1.64;;
74788;SDS011;63313;48.258;12.518;2023-09-19T07:27:54;5.04;;;1.7400000000000002;;
74788;SDS011;63313;48.258;12.518;2023-09-19T07:33:22;4.609999999999999;;;1.85;;
74788;SDS011;63313;48.258;12.518;2023-09-19T07:38:49;1.61;;;1.2;;
74788;SDS011;63313;48.258;12.518;2023-09-19T07:44:16;1.16;;;1.1099999999999999;;
74788;SDS011;63313;48.258;12.518;2023-09-19T07:49:45;1.7399999999999998;;;1.2;;
74788;SDS011;63313;48.258;12.518;2023-09-19T07:55:13;3.3699999999999997;;;1.3900000000000001;;
74788;SDS011;63313;48.258;12.518;2023-09-19T08:00:40;4.2299999999999995;;;1.2700000000000002;;
74788;SDS011;63313;48.258;12.518;2023-09-19T08:06:07;2.9;;;1.2399999999999998;;
74788;SDS011;63313;48.258;12.518;2023-09-19T08:11:34;3.6800000000000006;;;1.5899999999999999;;
74788;SDS011;63313;48.258;12.518;2023-09-19T08:17:01;3.6900000000000004;;;1.1999999999999997;;
74788;SDS011;63313;48.258;12.518;2023-09-19T08:22:28;1.85;;;1.33;;
74788;SDS011;63313;48.258;12.518;2023-09-19T08:27:55;2.16;;;1.25;;
74788;SDS011;63313;48.258;12.518;2023-09-19T08:33:23;1.2400000000000002;;;1.0299999999999998;;
74788;SDS011;63313;48.258;12.518;2023-09-19T08:38:50;1.05;;;0.9400000000000001;;
74788;SDS011;63313;48.258;12.518;2023-09-19T08:44:17;1.5000000000000002;;;1.04;;
74788;SDS011;63313;48.258;12.518;2023-09-19T08:55:28;2.7500000000000004;;;0.9199999999999999;;
74788;SDS011;63313;48.258;12.518;2023-09-19T09:00:55;1.16;;;0.8799999999999999;;
74788;SDS011;63313;48.258;12.518;2023-09-19T09:06:23;1.5299999999999998;;;0.99;;
74788;SDS011;63313;48.258;12.518;2023-09-19T09:11:51;1.16;;;0.89;;
74788;SDS011;63313;48.258;12.518;2023-09-19T09:17:18;0.9;;;0.89;;
74788;SDS011;63313;48.258;12.518;2023-09-19T09:22:53;1.8;;;1.01;;
74788;SDS011;63313;48.258;12.518;2023-09-19T09:28:20;1.4400000000000002;;;1.3;;
74788;SDS011;63313;48.258;12.518;2023-09-19T09:33:52;3.08;;;0.96;;
74788;SDS011;63313;48.258;12.518;2023-09-19T09:39:29;1.3299999999999998;;;1.02;;
74788;SDS011;63313;48.258;12.518;2023-09-19T09:45:05;2.54;;;1.0999999999999999;;
74788;SDS011;63313;48.258;12.518;2023-09-19T09:50:39;2.74;;;1.11;;
74788;SDS011;63313;48.258;12.518;2023-09-19T09:56:12;1.92;;;1.28;;
74788;SDS011;63313;48.258;12.518;2023-09-19T10:01:48;1.3699999999999999;;;0.8800000000000001;;
74788;SDS011;63313;48.258;12.518;2023-09-19T10:07:23;1.73;;;1.0399999999999998;;
74788;SDS011;63313;48.258;12.518;2023-09-19T10:12:50;1.03;;;0.96;;
74788;SDS011;63313;48.258;12.518;2023-09-19T10:18:21;2.9;;;1.01;;
74788;SDS011;63313;48.258;12.518;2023-09-19T10:23:49;0.79;;;0.78;;
74788;SDS011;63313;48.258;12.518;2023-09-19T10:29:17;1.49;;;1.0899999999999999;;
74788;SDS011;63313;48.258;12.518;2023-09-19T10:34:44;0.9400000000000001;;;0.9200000000000002;;
74788;SDS011;63313;48.258;12.518;2023-09-19T10:40:13;0.8700000000000001;;;0.8400000000000001;;
74788;SDS011;63313;48.258;12.518;2023-09-19T10:45:41;0.9;;;0.85;;
74788;SDS011;63313;48.258;12.518;2023-09-19T10:51:09;0.8899999999999999;;;0.7;;
74788;SDS011;63313;48.258;12.518;2023-09-19T10:56:37;0.9800000000000001;;;0.8800000000000001;;
74788;SDS011;63313;48.258;12.518;2023-09-19T11:02:15;0.89;;;0.8400000000000001;;
74788;SDS011;63313;48.258;12.518;2023-09-19T11:07:57;1.83;;;1.02;;
74788;SDS011;63313;48.258;12.518;2023-09-19T11:13:25;1.81;;;1.1300000000000001;;
74788;SDS011;63313;48.258;12.518;2023-09-19T11:18:53;1.52;;;0.96;;
74788;SDS011;63313;48.258;12.518;2023-09-19T11:24:27;1.2799999999999998;;;0.79;;
74788;SDS011;63313;48.258;12.518;2023-09-19T11:30:04;1.4100000000000001;;;0.8800000000000001;;
74788;SDS011;63313;48.258;12.518;2023-09-19T11:36:00;0.9299999999999999;;;0.8300000000000001;;
74788;SDS011;63313;48.258;12.518;2023-09-19T11:41:42;1.7600000000000002;;;1.0499999999999998;;
74788;SDS011;63313;48.258;12.518;2023-09-19T11:47:09;3.7999999999999994;;;1.11;;
74788;SDS011;63313;48.258;12.518;2023-09-19T11:52:37;1.56;;;0.9099999999999999;;
74788;SDS011;63313;48.258;12.518;2023-09-19T11:58:04;1.97;;;1.31;;
74788;SDS011;63313;48.258;12.518;2023-09-19T12:03:33;2.69;;;1.0499999999999998;;
74788;SDS011;63313;48.258;12.518;2023-09-19T12:09:03;1.23;;;1.1199999999999999;;
74788;SDS011;63313;48.258;12.518;2023-09-19T12:14:30;1.35;;;0.8300000000000001;;
74788;SDS011;63313;48.258;12.518;2023-09-19T12:19:57;1.07;;;0.9;;
74788;SDS011;63313;48.258;12.518;2023-09-19T12:25:24;1.29;;;0.7699999999999999;;
74788;SDS011;63313;48.258;12.518;2023-09-19T12:30:51;1.27;;;0.73;;
74788;SDS011;63313;48.258;12.518;2023-09-19T12:36:19;2.4699999999999998;;;0.7699999999999999;;
74788;SDS011;63313;48.258;12.518;2023-09-19T12:41:46;0.8400000000000001;;;0.82;;
74788;SDS011;63313;48.258;12.518;2023-09-19T12:47:14;0.76;;;0.6900000000000001;;
74788;SDS011;63313;48.258;12.518;2023-09-19T12:52:42;2.27;;;2.08;;
74788;SDS011;63313;48.258;12.518;2023-09-19T12:58:11;2.67;;;0.7699999999999999;;
74788;SDS011;63313;48.258;12.518;2023-09-19T13:03:39;2.3000000000000003;;;0.8300000000000001;;
74788;SDS011;63313;48.258;12.518;2023-09-19T13:09:07;0.79;;;0.78;;
74788;SDS011;63313;48.258;12.518;2023-09-19T13:14:34;1.4100000000000001;;;1.19;;
74788;SDS011;63313;48.258;12.518;2023-09-19T13:20:01;1.19;;;0.7700000000000001;;
74788;SDS011;63313;48.258;12.518;2023-09-19T13:25:29;1.37;;;0.75;;
74788;SDS011;63313;48.258;12.518;2023-09-19T13:30:56;1.2999999999999998;;;0.8099999999999999;;
74788;SDS011;63313;48.258;12.518;2023-09-19T13:36:23;4.03;;;1.4300000000000002;;
74788;SDS011;63313;48.258;12.518;2023-09-19T13:41:50;3.94;;;1.65;;
74788;SDS011;63313;48.258;12.518;2023-09-19T13:47:17;1.13;;;1.06;;
74788;SDS011;63313;48.258;12.518;2023-09-19T13:52:44;1.65;;;0.93;;
74788;SDS011;63313;48.258;12.518;2023-09-19T13:58:11;6.28;;;0.99;;
74788;SDS011;63313;48.258;12.518;2023-09-19T14:03:38;1.3399999999999999;;;0.9400000000000001;;
74788;SDS011;63313;48.258;12.518;2023-09-19T14:09:05;1.4900000000000002;;;1.2099999999999997;;
74788;SDS011;63313;48.258;12.518;2023-09-19T14:14:33;1.7400000000000002;;;0.9;;
74788;SDS011;63313;48.258;12.518;2023-09-19T14:20:00;1.37;;;0.8200000000000001;;
74788;SDS011;63313;48.258;12.518;2023-09-19T14:25:27;1.3699999999999999;;;0.8300000000000001;;
74788;SDS011;63313;48.258;12.518;2023-09-19T14:30:54;4.909999999999999;;;1.1199999999999999;;
74788;SDS011;63313;48.258;12.518;2023-09-19T14:36:21;0.95;;;0.95;;
74788;SDS011;63313;48.258;12.518;2023-09-19T14:41:48;1.01;;;0.8700000000000001;;
74788;SDS011;63313;48.258;12.518;2023-09-19T14:47:15;1.8199999999999998;;;1.14;;
74788;SDS011;63313;48.258;12.518;2023-09-19T14:52:43;2.18;;;1.0899999999999999;;
74788;SDS011;63313;48.258;12.518;2023-09-19T14:58:10;3.6;;;1.3599999999999999;;
74788;SDS011;63313;48.258;12.518;2023-09-19T15:03:37;0.9600000000000002;;;0.8600000000000001;;
74788;SDS011;63313;48.258;12.518;2023-09-19T15:09:04;1.17;;;0.71;;
74788;SDS011;63313;48.258;12.518;2023-09-19T15:14:32;1.7;;;1.02;;
74788;SDS011;63313;48.258;12.518;2023-09-19T15:19:59;1.6500000000000004;;;1.14;;
74788;SDS011;63313;48.258;12.518;2023-09-19T15:25:26;0.93;;;0.93;;
74788;SDS011;63313;48.258;12.518;2023-09-19T15:30:57;1.16;;;1.0799999999999998;;
74788;SDS011;63313;48.258;12.518;2023-09-19T15:36:24;1.55;;;0.89;;
74788;SDS011;63313;48.258;12.518;2023-09-19T15:41:51;1.0299999999999998;;;1.0;;
74788;SDS011;63313;48.258;12.518;2023-09-19T15:47:18;1.35;;;0.8800000000000001;;
74788;SDS011;63313;48.258;12.518;2023-09-19T15:52:45;4.130000000000001;;;1.1300000000000001;;
74788;SDS011;63313;48.258;12.518;2023-09-19T15:58:12;1.49;;;1.16;;
74788;SDS011;63313;48.258;12.518;2023-09-19T16:03:41;2.66;;;1.0999999999999999;;
74788;SDS011;63313;48.258;12.518;2023-09-19T16:09:09;3.04;;;1.8199999999999998;;
74788;SDS011;63313;48.258;12.518;2023-09-19T16:14:36;2.06;;;1.2500000000000002;;
74788;SDS011;63313;48.258;12.518;2023-09-19T16:20:04;3.65;;;1.56;;
74788;SDS011;63313;48.258;12.518;2023-09-19T16:25:31;2.7600000000000002;;;1.3;;
74788;SDS011;63313;48.258;12.518;2023-09-19T16:30:58;3.53;;;1.25;;
74788;SDS011;63313;48.258;12.518;2023-09-19T16:36:25;1.3699999999999999;;;1.0;;
74788;SDS011;63313;48.258;12.518;2023-09-19T16:41:52;0.8700000000000001;;;0.8;;
74788;SDS011;63313;48.258;12.518;2023-09-19T16:47:19;1.3199999999999998;;;1.05;;
74788;SDS011;63313;48.258;12.518;2023-09-19T16:52:47;3.22;;;1.57;;
74788;SDS011;63313;48.258;12.518;2023-09-19T16:58:14;4.6;;;1.6099999999999999;;
74788;SDS011;63313;48.258;12.518;2023-09-19T17:03:41;2.33;;;2.0100000000000002;;
74788;SDS011;63313;48.258;12.518;2023-09-19T17:09:08;1.7899999999999998;;;1.69;;
74788;SDS011;63313;48.258;12.518;2023-09-19T17:14:35;3.53;;;1.53;;
74788;SDS011;63313;48.258;12.518;2023-09-19T17:20:03;2.84;;;1.4600000000000002;;
74788;SDS011;63313;48.258;12.518;2023-09-19T17:25:30;2.43;;;1.97;;
74788;SDS011;63313;48.258;12.518;2023-09-19T17:30:57;5.5;;;2.17;;
74788;SDS011;63313;48.258;12.518;2023-09-19T17:36:25;3.5200000000000005;;;2.3899999999999997;;
74788;SDS011;63313;48.258;12.518;2023-09-19T17:41:52;4.96;;;2.0599999999999996;;
74788;SDS011;63313;48.258;12.518;2023-09-19T17:47:19;2.9799999999999995;;;2.1500000000000004;;
74788;SDS011;63313;48.258;12.518;2023-09-19T17:52:46;4.35;;;2.2299999999999995;;
74788;SDS011;63313;48.258;12.518;2023-09-19T17:58:13;2.3899999999999997;;;2.13;;
74788;SDS011;63313;48.258;12.518;2023-09-19T18:03:41;3.0100000000000002;;;2.13;;
74788;SDS011;63313;48.258;12.518;2023-09-19T18:09:08;3.59;;;2.33;;
74788;SDS011;63313;48.258;12.518;2023-09-19T18:14:35;7.49;;;2.41;;
74788;SDS011;63313;48.258;12.518;2023-09-19T18:20:02;2.12;;;1.6300000000000001;;
74788;SDS011;63313;48.258;12.518;2023-09-19T18:25:30;5.179999999999999;;;1.9300000000000002;;
74788;SDS011;63313;48.258;12.518;2023-09-19T18:30:57;2.4999999999999996;;;1.69;;
74788;SDS011;63313;48.258;12.518;2023-09-19T18:36:24;4.19;;;1.9099999999999997;;
74788;SDS011;63313;48.258;12.518;2023-09-19T18:41:51;1.9100000000000001;;;1.75;;
74788;SDS011;63313;48.258;12.518;2023-09-19T18:47:18;2.07;;;1.78;;
74788;SDS011;63313;48.258;12.518;2023-09-19T18:52:45;2.84;;;1.8299999999999996;;
74788;SDS011;63313;48.258;12.518;2023-09-19T18:58:12;7.83;;;2.4699999999999998;;
74788;SDS011;63313;48.258;12.518;2023-09-19T19:03:40;2.23;;;2.06;;
74788;SDS011;63313;48.258;12.518;2023-09-19T19:09:07;4.18;;;1.98;;
74788;SDS011;63313;48.258;12.518;2023-09-19T19:14:34;2.33;;;2.0;;
74788;SDS011;63313;48.258;12.518;2023-09-19T19:20:01;1.98;;;1.6800000000000002;;
74788;SDS011;63313;48.258;12.518;2023-09-19T19:25:28;2.97;;;2.05;;
74788;SDS011;63313;48.258;12.518;2023-09-19T19:30:55;2.12;;;1.77;;
74788;SDS011;63313;48.258;12.518;2023-09-19T19:36:22;2.0599999999999996;;;1.9300000000000002;;
74788;SDS011;63313;48.258;12.518;2023-09-19T19:41:49;4.1899999999999995;;;1.8699999999999999;;
74788;SDS011;63313;48.258;12.518;2023-09-19T19:47:16;5.029999999999999;;;2.3099999999999996;;
74788;SDS011;63313;48.258;12.518;2023-09-19T19:52:43;2.6999999999999997;;;2.21;;
74788;SDS011;63313;48.258;12.518;2023-09-19T19:58:10;3.04;;;2.04;;
74788;SDS011;63313;48.258;12.518;2023-09-19T20:03:37;3.09;;;2.1900000000000004;;
74788;SDS011;63313;48.258;12.518;2023-09-19T20:09:04;5.44;;;1.9899999999999998;;
74788;SDS011;63313;48.258;12.518;2023-09-19T20:14:31;4.75;;;2.46;;
74788;SDS011;63313;48.258;12.518;2023-09-19T20:19:58;4.069999999999999;;;2.5000000000000004;;
74788;SDS011;63313;48.258;12.518;2023-09-19T20:25:26;2.0;;;1.56;;
74788;SDS011;63313;48.258;12.518;2023-09-19T20:30:53;3.14;;;2.22;;
74788;SDS011;63313;48.258;12.518;2023-09-19T20:36:20;4.8100000000000005;;;2.54;;
74788;SDS011;63313;48.258;12.518;2023-09-19T20:41:47;2.76;;;2.41;;
74788;SDS011;63313;48.258;12.518;2023-09-19T20:47:14;2.71;;;2.3200000000000003;;
74788;SDS011;63313;48.258;12.518;2023-09-19T20:52:41;5.249999999999999;;;3.47;;
74788;SDS011;63313;48.258;12.518;2023-09-19T20:58:08;7.4799999999999995;;;2.63;;
74788;SDS011;63313;48.258;12.518;2023-09-19T21:03:35;3.85;;;2.2399999999999998;;
74788;SDS011;63313;48.258;12.518;2023-09-19T21:09:03;2.53;;;2.08;;
74788;SDS011;63313;48.258;12.518;2023-09-19T21:14:30;2.71;;;2.3199999999999994;;
74788;SDS011;63313;48.258;12.518;2023-09-19T21:19:57;6.119999999999999;;;2.4200000000000004;;
74788;SDS011;63313;48.258;12.518;2023-09-19T21:25:24;2.5300000000000002;;;2.04;;
74788;SDS011;63313;48.258;12.518;2023-09-19T21:30:58;2.66;;;2.29;;
74788;SDS011;63313;48.258;12.518;2023-09-19T21:36:26;2.4099999999999997;;;2.2;;
74788;SDS011;63313;48.258;12.518;2023-09-19T21:41:53;5.1;;;2.85;;
74788;SDS011;63313;48.258;12.518;2023-09-19T21:47:20;7.480000000000001;;;2.87;;
74788;SDS011;63313;48.258;12.518;2023-09-19T21:52:47;4.0200000000000005;;;2.71;;
74788;SDS011;63313;48.258;12.518;2023-09-19T21:58:14;2.2;;;2.0100000000000002;;
74788;SDS011;63313;48.258;12.518;2023-09-19T22:03:41;3.44;;;2.31;;
74788;SDS011;63313;48.258;12.518;2023-09-19T22:09:08;3.06;;;1.7100000000000002;;
74788;SDS011;63313;48.258;12.518;2023-09-19T22:14:35;1.7399999999999998;;;1.6199999999999999;;
74788;SDS011;63313;48.258;12.518;2023-09-19T22:20:03;2.52;;;2.09;;
74788;SDS011;63313;48.258;12.518;2023-09-19T22:25:30;2.71;;;1.67;;
74788;SDS011;63313;48.258;12.518;2023-09-19T22:30:57;2.07;;;1.9100000000000001;;
74788;SDS011;63313;48.258;12.518;2023-09-19T22:36:24;2.19;;;1.7400000000000002;;
74788;SDS011;63313;48.258;12.518;2023-09-19T22:41:52;4.03;;;1.85;;
74788;SDS011;63313;48.258;12.518;2023-09-19T22:47:19;1.55;;;1.4;;
74788;SDS011;63313;48.258;12.518;2023-09-19T22:52:46;2.67;;;1.9999999999999996;;
74788;SDS011;63313;48.258;12.518;2023-09-19T22:58:13;4.6;;;1.8299999999999996;;
74788;SDS011;63313;48.258;12.518;2023-09-19T23:03:41;2.88;;;2.15;;
74788;SDS011;63313;48.258;12.518;2023-09-19T23:09:09;4.51;;;1.9100000000000001;;
74788;SDS011;63313;48.258;12.518;2023-09-19T23:14:36;3.3599999999999994;;;2.16;;
74788;SDS011;63313;48.258;12.518;2023-09-19T23:20:04;2.3899999999999997;;;2.2199999999999998;;
74788;SDS011;63313;48.258;12.518;2023-09-19T23:25:31;3.2299999999999995;;;2.45;;
74788;SDS011;63313;48.258;12.518;2023-09-19T23:30:58;4.3100000000000005;;;3.44;;
74788;SDS011;63313;48.258;12.518;2023-09-19T23:36:25;3.0800000000000005;;;2.8600000000000003;;
74788;SDS011;63313;48.258;12.518;2023-09-19T23:41:52;3.63;;;2.1300000000000003;;
74788;SDS011;63313;48.258;12.518;2023-09-19T23:47:19;2.57;;;2.25;;
74788;SDS011;63313;48.258;12.518;2023-09-19T23:52:46;2.6400000000000006;;;2.43;;
74788;SDS011;63313;48.258;12.518;2023-09-19T23:58:13;1.9099999999999997;;;1.8399999999999999;;
